createdAt,value
2023-01-10T00:03:05.209Z,100993.06
2023-01-10T00:08:10.487Z,100970.09
2023-01-10T00:13:26.616Z,100972.59
2023-01-10T00:18:31.615Z,100951.44
2023-01-10T00:23:35.077Z,100952.97
2023-01-10T00:28:39.733Z,100966.22
2023-01-10T00:33:44.583Z,100936.09
2023-01-10T00:38:48.222Z,100952.50
2023-01-10T00:44:00.836Z,100957.47
2023-01-10T00:49:11.664Z,100949.03
2023-01-10T00:54:15.962Z,100932.81
2023-01-10T00:59:20.145Z,100939.41
2023-01-10T01:04:24.891Z,100936.56
2023-01-10T01:09:28.655Z,100926.97
2023-01-10T01:14:31.772Z,100922.47
2023-01-10T01:19:36.693Z,100923.25
2023-01-10T01:24:40.697Z,100936.94
2023-01-10T01:29:44.507Z,100921.72
2023-01-10T01:34:49.332Z,100929.16
2023-01-10T01:39:53.150Z,100916.31
2023-01-10T01:45:14.930Z,100921.41
2023-01-10T01:50:24.527Z,100914.78
2023-01-10T01:55:32.302Z,100910.94
2023-01-10T02:00:36.045Z,100914.69
2023-01-10T02:05:43.888Z,100912.59
2023-01-10T02:10:54.912Z,100905.56
2023-01-10T02:15:58.499Z,100905.13
2023-01-10T02:21:34.991Z,100912.75
2023-01-10T02:27:17.116Z,100921.78
2023-01-10T02:32:43.885Z,100921.75
2023-01-10T02:38:01.262Z,100906.88
2023-01-10T02:43:10.250Z,100916.31
2023-01-10T02:48:15.480Z,100910.56
2023-01-10T02:53:23.935Z,100924.97
2023-01-10T02:58:41.864Z,100932.66
2023-01-10T03:03:53.738Z,100929.13
2023-01-10T03:09:04.907Z,100921.88
2023-01-10T03:14:13.125Z,100918.25
2023-01-10T03:19:22.053Z,100908.78
2023-01-10T03:24:30.067Z,100919.88
2023-01-10T03:29:38.943Z,100909.41
2023-01-10T03:34:43.964Z,100923.50
2023-01-10T03:39:59.233Z,100935.41
2023-01-10T03:45:08.008Z,100928.66
2023-01-10T03:50:16.999Z,100915.81
2023-01-10T03:55:23.545Z,100923.41
2023-01-10T04:00:27.309Z,100932.91
2023-01-10T04:05:32.197Z,100946.81
2023-01-10T04:10:35.772Z,100944.44
2023-01-10T04:15:39.239Z,100951.31
2023-01-10T04:20:44.336Z,100943.63
2023-01-10T04:25:48.693Z,100956.41
2023-01-10T04:30:52.257Z,100958.53
2023-01-10T04:35:57.464Z,100957.22
2023-01-10T04:41:01.070Z,100959.22
2023-01-10T04:46:04.584Z,100950.41
2023-01-10T04:51:09.783Z,100950.88
2023-01-10T04:56:19.647Z,100952.41
2023-01-10T05:01:25.367Z,100961.50
2023-01-10T05:06:30.421Z,100984.25
2023-01-10T05:11:34.297Z,100987.47
2023-01-10T05:16:38.012Z,100996.03
2023-01-10T05:21:43.206Z,101001.91
2023-01-10T05:26:46.815Z,101001.47
2023-01-10T05:31:52.588Z,100995.56
2023-01-10T05:36:57.632Z,101012.41
2023-01-10T05:42:02.010Z,101012.13
2023-01-10T05:47:05.782Z,101027.09
2023-01-10T05:52:10.817Z,101034.91
2023-01-10T05:57:14.503Z,101035.19
2023-01-10T06:02:18.017Z,101035.41
2023-01-10T06:07:23.113Z,101020.53
2023-01-10T06:12:26.797Z,101023.63
2023-01-10T06:17:30.398Z,101030.50
2023-01-10T06:22:35.194Z,101032.44
2023-01-10T06:27:41.450Z,101050.69
2023-01-10T06:32:44.934Z,101035.31
2023-01-10T06:37:50.225Z,101046.28
2023-01-10T06:42:53.750Z,101053.38
2023-01-10T06:47:57.401Z,101053.72
2023-01-10T06:53:03.892Z,101051.25
2023-01-10T06:58:07.525Z,101051.69
2023-01-10T07:03:11.385Z,101052.28
2023-01-10T07:08:16.597Z,101052.97
2023-01-10T07:13:20.050Z,101042.00
2023-01-10T07:18:23.706Z,101050.78
2023-01-10T07:23:28.647Z,101051.50
2023-01-10T07:28:34.665Z,101052.25
2023-01-10T07:33:37.997Z,101064.94
2023-01-10T07:38:43.241Z,101068.53
2023-01-10T07:43:46.740Z,101067.09
2023-01-10T07:48:50.420Z,101060.53
2023-01-10T07:53:55.382Z,101073.75
2023-01-10T07:58:59.147Z,101074.09
2023-01-10T08:04:02.533Z,101090.72
2023-01-10T08:09:07.580Z,101084.84
2023-01-10T08:14:11.116Z,101074.44
2023-01-10T08:19:17.338Z,101061.16
2023-01-10T08:24:22.295Z,101067.78
2023-01-10T08:29:25.965Z,101060.78
2023-01-10T08:34:29.387Z,101065.78
2023-01-10T08:39:35.783Z,101062.00
2023-01-10T08:44:39.265Z,101056.22
2023-01-10T08:49:42.853Z,101057.63
2023-01-10T08:54:47.845Z,101056.72
2023-01-10T08:59:51.180Z,101046.28
2023-01-10T09:04:56.442Z,101050.38
2023-01-10T09:10:01.529Z,101049.78
2023-01-10T09:15:08.092Z,101043.06
2023-01-10T09:20:12.562Z,101046.91
2023-01-10T09:25:17.552Z,101055.22
2023-01-10T09:30:21.242Z,101043.88
2023-01-10T09:35:25.787Z,101040.91
2023-01-10T09:40:43.754Z,101029.78
2023-01-10T09:45:55.192Z,101025.94
2023-01-10T09:51:24.883Z,101040.06
2023-01-10T09:56:31.065Z,101027.84
2023-01-10T10:01:37.468Z,101020.25
2023-01-10T10:06:41.177Z,101023.53
2023-01-10T10:12:01.900Z,101022.81
2023-01-10T10:17:20.302Z,101016.22
2023-01-10T10:22:33.620Z,101014.56
2023-01-10T10:27:48.249Z,101021.19
2023-01-10T10:33:07.656Z,101018.88
2023-01-10T10:38:16.469Z,101017.72
2023-01-10T10:43:25.866Z,101003.94
2023-01-10T10:48:31.864Z,101018.22
2023-01-10T10:53:36.463Z,101015.72
2023-01-10T10:58:43.871Z,101014.78
2023-01-10T11:03:50.931Z,101019.88
2023-01-10T11:08:58.796Z,101020.16
2023-01-10T11:14:05.483Z,101019.06
2023-01-10T11:19:23.382Z,101024.38
2023-01-10T11:24:33.824Z,101034.53
2023-01-10T11:29:45.180Z,101035.59
2023-01-10T11:34:55.016Z,101026.97
2023-01-10T11:40:21.251Z,101025.81
2023-01-10T11:45:29.895Z,101019.63
2023-01-10T11:50:37.058Z,101020.81
2023-01-10T11:55:40.698Z,101020.59
2023-01-10T12:00:49.772Z,101020.81
2023-01-10T12:05:55.936Z,101021.22
2023-01-10T12:11:02.930Z,101043.91
2023-01-10T12:16:23.555Z,101064.69
2023-01-10T12:21:33.132Z,101072.84
2023-01-10T12:26:37.035Z,101060.84
2023-01-10T12:31:42.717Z,101053.13
2023-01-10T12:36:58.495Z,101061.66
2023-01-10T12:42:33.071Z,101059.13
2023-01-10T12:47:49.852Z,101061.00
2023-01-10T12:52:57.841Z,101054.41
2023-01-10T12:58:04.952Z,101052.91
2023-01-10T13:03:14.097Z,101047.94
2023-01-10T13:08:20.714Z,101051.97
2023-01-10T13:13:33.454Z,101059.56
2023-01-10T13:18:38.536Z,101084.16
2023-01-10T13:23:49.440Z,101085.88
2023-01-10T13:28:57.665Z,101074.91
2023-01-10T13:34:06.170Z,101074.59
2023-01-10T13:39:24.195Z,101072.16
2023-01-10T13:44:27.697Z,101065.34
2023-01-10T13:49:47.449Z,101082.19
2023-01-10T13:54:58.650Z,101066.16
2023-01-10T14:00:20.964Z,101052.19
2023-01-10T14:05:25.811Z,101051.06
2023-01-10T14:10:32.012Z,101069.31
2023-01-10T14:15:41.761Z,101072.72
2023-01-10T14:20:57.617Z,101074.25
2023-01-10T14:26:01.414Z,101077.81
2023-01-10T14:31:09.292Z,101089.06
2023-01-10T14:36:20.069Z,101082.66
2023-01-10T14:41:32.743Z,101073.38
2023-01-10T14:46:46.028Z,101061.41
2023-01-10T14:51:52.270Z,101065.34
2023-01-10T14:56:57.826Z,101080.53
2023-01-10T15:02:03.721Z,101095.13
2023-01-10T15:07:13.836Z,101063.03
2023-01-10T15:12:18.773Z,101078.09
2023-01-10T15:17:23.671Z,101075.19
2023-01-10T15:22:31.290Z,101060.88
2023-01-10T15:27:36.962Z,101072.06
2023-01-10T15:32:41.681Z,101055.41
2023-01-10T15:37:52.282Z,101069.34
2023-01-10T15:43:12.539Z,101075.66
2023-01-10T15:48:28.350Z,101063.72
2023-01-10T15:54:07.439Z,101084.97
2023-01-10T15:59:23.815Z,101085.47
2023-01-10T16:04:27.829Z,101094.09
2023-01-10T16:09:33.179Z,101080.66
2023-01-10T16:14:36.992Z,101081.63
2023-01-10T16:19:40.682Z,101077.09
2023-01-10T16:24:47.588Z,101090.91
2023-01-10T16:29:52.275Z,101099.44
2023-01-10T16:34:55.783Z,101096.63
2023-01-10T16:40:00.852Z,101078.28
2023-01-10T16:45:04.387Z,101091.63
2023-01-10T16:50:09.265Z,101086.91
2023-01-10T16:55:17.239Z,101079.94
2023-01-10T17:00:21.523Z,101092.22
2023-01-10T17:05:25.619Z,101086.13
2023-01-10T17:10:31.616Z,101096.19
2023-01-10T17:15:36.810Z,101081.63
2023-01-10T17:20:40.396Z,101088.94
2023-01-10T17:25:47.390Z,101081.66
2023-01-10T17:30:50.976Z,101079.06
2023-01-10T17:35:56.288Z,101092.41
2023-01-10T17:41:03.619Z,101086.53
2023-01-10T17:46:08.289Z,101085.00
2023-01-10T17:51:14.363Z,101078.59
2023-01-10T17:56:19.340Z,101080.31
2023-01-10T18:01:25.640Z,101087.13
2023-01-10T18:06:29.436Z,101086.47
2023-01-10T18:11:34.477Z,101089.47
2023-01-10T18:16:38.099Z,101097.41
2023-01-10T18:21:41.732Z,101082.41
2023-01-10T18:26:48.181Z,101077.75
2023-01-10T18:31:51.811Z,101087.03
2023-01-10T18:36:55.387Z,101077.47
2023-01-10T18:42:00.436Z,101081.97
2023-01-10T18:47:04.092Z,101096.38
2023-01-10T18:52:08.060Z,101080.53
2023-01-10T18:57:13.082Z,101083.91
2023-01-10T19:02:17.115Z,101082.81
2023-01-10T19:07:20.790Z,101087.63
2023-01-10T19:12:25.491Z,101085.34
2023-01-10T19:17:30.849Z,101073.94
2023-01-10T19:22:34.198Z,101066.88
2023-01-10T19:27:39.305Z,101066.00
2023-01-10T19:32:42.769Z,101080.75
2023-01-10T19:37:46.498Z,101081.91
2023-01-10T19:42:51.262Z,101086.22
2023-01-10T19:47:54.829Z,101081.44
2023-01-10T19:52:58.214Z,101068.00
2023-01-10T19:58:03.780Z,101050.25
2023-01-10T20:03:08.089Z,101066.00
2023-01-10T20:08:11.372Z,101072.59
2023-01-10T20:13:16.258Z,101063.69
2023-01-10T20:18:19.866Z,101050.75
2023-01-10T20:23:23.733Z,101063.53
2023-01-10T20:28:28.796Z,101056.66
2023-01-10T20:33:34.677Z,101059.34
2023-01-10T20:38:39.169Z,101055.16
2023-01-10T20:43:44.316Z,101048.91
2023-01-10T20:48:49.243Z,101054.09
2023-01-10T20:53:52.875Z,101054.50
2023-01-10T20:58:58.049Z,101053.31
2023-01-10T21:04:02.170Z,101044.53
2023-01-10T21:09:06.802Z,101055.59
2023-01-10T21:14:13.326Z,101051.59
2023-01-10T21:19:17.080Z,101039.31
2023-01-10T21:24:23.103Z,101044.47
2023-01-10T21:29:28.091Z,101041.28
2023-01-10T21:34:31.546Z,101049.56
2023-01-10T21:39:35.111Z,101057.44
2023-01-10T21:44:39.882Z,101051.19
2023-01-10T21:49:43.617Z,101049.66
2023-01-10T21:54:47.155Z,101063.59
2023-01-10T21:59:52.631Z,101052.19
2023-01-10T22:04:56.443Z,101053.81
2023-01-10T22:10:00.163Z,101067.84
2023-01-10T22:15:05.412Z,101058.72
2023-01-10T22:20:10.592Z,101045.34
2023-01-10T22:25:14.094Z,101045.91
2023-01-10T22:30:19.754Z,101037.63
2023-01-10T22:35:26.327Z,101031.44
2023-01-10T22:40:29.942Z,101050.91
2023-01-10T22:45:34.861Z,101035.63
2023-01-10T22:50:39.950Z,101021.16
2023-01-10T22:55:43.360Z,101033.06
2023-01-10T23:00:50.085Z,101035.50
2023-01-10T23:05:55.713Z,101035.63
2023-01-10T23:10:59.498Z,101039.53
2023-01-10T23:16:07.169Z,101043.50
2023-01-10T23:21:11.323Z,101030.66
2023-01-10T23:26:16.017Z,101043.53
2023-01-10T23:31:23.683Z,101032.84
2023-01-10T23:36:27.540Z,101030.28
2023-01-10T23:41:31.136Z,101019.28
2023-01-10T23:46:36.153Z,101012.63
2023-01-10T23:51:40.121Z,101006.66
2023-01-10T23:56:43.700Z,101010.47
